sensor_id;sensor_type;location;lat;lon;timestamp;P1;durP1;ratioP1;P2;durP2;ratioP2
10351;SDS011;5222;49.324;8.420;2022-07-29T00:01:38;1097.80;;;999.90;;
10351;SDS011;5222;49.324;8.420;2022-07-29T00:04:04;1089.07;;;999.90;;
10351;SDS011;5222;49.324;8.420;2022-07-29T00:06:31;1116.35;;;999.90;;
10351;SDS011;5222;49.324;8.420;2022-07-29T00:08:58;1095.20;;;999.90;;
10351;SDS011;5222;49.324;8.420;2022-07-29T00:11:26;1096.47;;;999.90;;
10351;SDS011;5222;49.324;8.420;2022-07-29T00:13:52;1101.15;;;999.90;;
10351;SDS011;5222;49.324;8.420;2022-07-29T00:16:19;1101.05;;;999.90;;
10351;SDS011;5222;49.324;8.420;2022-07-29T00:18:46;1088.07;;;999.90;;
10351;SDS011;5222;49.324;8.420;2022-07-29T00:21:13;1104.18;;;999.90;;
10351;SDS011;5222;49.324;8.420;2022-07-29T00:23:40;1099.38;;;999.90;;
10351;SDS011;5222;49.324;8.420;2022-07-29T00:26:07;1095.65;;;999.90;;
10351;SDS011;5222;49.324;8.420;2022-07-29T00:28:35;1094.63;;;999.90;;
10351;SDS011;5222;49.324;8.420;2022-07-29T00:31:02;1100.13;;;999.90;;
10351;SDS011;5222;49.324;8.420;2022-07-29T00:33:28;1104.20;;;999.90;;
10351;SDS011;5222;49.324;8.420;2022-07-29T00:35:55;1099.47;;;999.90;;
10351;SDS011;5222;49.324;8.420;2022-07-29T00:38:21;1098.15;;;999.90;;
10351;SDS011;5222;49.324;8.420;2022-07-29T00:40:48;1095.15;;;999.90;;
10351;SDS011;5222;49.324;8.420;2022-07-29T00:43:15;1099.53;;;999.90;;
10351;SDS011;5222;49.324;8.420;2022-07-29T00:45:44;1092.55;;;999.90;;
10351;SDS011;5222;49.324;8.420;2022-07-29T00:48:11;1102.60;;;999.90;;
10351;SDS011;5222;49.324;8.420;2022-07-29T00:50:38;1103.53;;;999.90;;
10351;SDS011;5222;49.324;8.420;2022-07-29T00:53:05;1092.75;;;999.90;;
10351;SDS011;5222;49.324;8.420;2022-07-29T00:55:33;1100.20;;;999.90;;
10351;SDS011;5222;49.324;8.420;2022-07-29T00:58:00;1097.30;;;999.90;;
10351;SDS011;5222;49.324;8.420;2022-07-29T01:00:27;1111.53;;;999.90;;
10351;SDS011;5222;49.324;8.420;2022-07-29T01:02:56;1099.83;;;999.90;;
10351;SDS011;5222;49.324;8.420;2022-07-29T01:05:23;1108.50;;;999.90;;
10351;SDS011;5222;49.324;8.420;2022-07-29T01:07:52;1100.30;;;999.90;;
10351;SDS011;5222;49.324;8.420;2022-07-29T01:10:20;1110.53;;;999.90;;
10351;SDS011;5222;49.324;8.420;2022-07-29T01:12:49;1103.93;;;999.90;;
10351;SDS011;5222;49.324;8.420;2022-07-29T01:15:17;1096.03;;;999.90;;
10351;SDS011;5222;49.324;8.420;2022-07-29T01:17:45;1099.93;;;999.90;;
10351;SDS011;5222;49.324;8.420;2022-07-29T01:20:20;1101.93;;;999.90;;
10351;SDS011;5222;49.324;8.420;2022-07-29T01:23:01;1097.53;;;999.90;;
10351;SDS011;5222;49.324;8.420;2022-07-29T01:28:40;1103.43;;;999.90;;
10351;SDS011;5222;49.324;8.420;2022-07-29T01:31:15;1104.72;;;999.90;;
10351;SDS011;5222;49.324;8.420;2022-07-29T01:33:48;1094.70;;;999.90;;
10351;SDS011;5222;49.324;8.420;2022-07-29T01:36:22;1098.18;;;999.90;;
10351;SDS011;5222;49.324;8.420;2022-07-29T01:38:54;1101.88;;;999.90;;
10351;SDS011;5222;49.324;8.420;2022-07-29T01:41:27;1089.47;;;999.90;;
10351;SDS011;5222;49.324;8.420;2022-07-29T01:43:59;1098.77;;;999.90;;
10351;SDS011;5222;49.324;8.420;2022-07-29T01:46:32;1094.63;;;999.90;;
10351;SDS011;5222;49.324;8.420;2022-07-29T01:49:02;1105.30;;;999.90;;
10351;SDS011;5222;49.324;8.420;2022-07-29T01:51:35;1098.95;;;999.90;;
10351;SDS011;5222;49.324;8.420;2022-07-29T01:54:08;1092.35;;;999.90;;
10351;SDS011;5222;49.324;8.420;2022-07-29T01:56:39;1097.68;;;999.90;;
10351;SDS011;5222;49.324;8.420;2022-07-29T01:59:09;1105.73;;;999.90;;
10351;SDS011;5222;49.324;8.420;2022-07-29T02:01:37;1099.07;;;999.90;;
10351;SDS011;5222;49.324;8.420;2022-07-29T02:04:07;1098.03;;;999.90;;
10351;SDS011;5222;49.324;8.420;2022-07-29T02:06:37;1099.97;;;999.90;;
10351;SDS011;5222;49.324;8.420;2022-07-29T02:09:06;1099.15;;;999.90;;
10351;SDS011;5222;49.324;8.420;2022-07-29T02:11:35;1100.60;;;999.90;;
10351;SDS011;5222;49.324;8.420;2022-07-29T02:14:03;1097.00;;;999.90;;
10351;SDS011;5222;49.324;8.420;2022-07-29T02:16:34;1099.77;;;999.90;;
10351;SDS011;5222;49.324;8.420;2022-07-29T02:19:03;1101.97;;;999.90;;
10351;SDS011;5222;49.324;8.420;2022-07-29T02:21:33;1096.70;;;999.90;;
10351;SDS011;5222;49.324;8.420;2022-07-29T02:24:01;1104.85;;;999.90;;
10351;SDS011;5222;49.324;8.420;2022-07-29T02:26:30;1108.35;;;999.90;;
10351;SDS011;5222;49.324;8.420;2022-07-29T02:28:59;1105.60;;;999.90;;
10351;SDS011;5222;49.324;8.420;2022-07-29T02:31:29;1106.82;;;999.90;;
10351;SDS011;5222;49.324;8.420;2022-07-29T02:34:00;1108.97;;;999.90;;
10351;SDS011;5222;49.324;8.420;2022-07-29T02:36:27;1110.72;;;999.90;;
10351;SDS011;5222;49.324;8.420;2022-07-29T02:38:56;1104.93;;;999.90;;
10351;SDS011;5222;49.324;8.420;2022-07-29T02:41:27;1115.20;;;999.90;;
10351;SDS011;5222;49.324;8.420;2022-07-29T02:43:56;1117.40;;;999.90;;
10351;SDS011;5222;49.324;8.420;2022-07-29T02:46:29;1111.78;;;999.90;;
10351;SDS011;5222;49.324;8.420;2022-07-29T02:49:02;1108.68;;;999.90;;
10351;SDS011;5222;49.324;8.420;2022-07-29T02:51:33;1114.13;;;999.90;;
10351;SDS011;5222;49.324;8.420;2022-07-29T02:54:07;1110.72;;;999.90;;
10351;SDS011;5222;49.324;8.420;2022-07-29T02:56:36;1111.70;;;999.90;;
10351;SDS011;5222;49.324;8.420;2022-07-29T02:59:06;1109.93;;;999.90;;
10351;SDS011;5222;49.324;8.420;2022-07-29T03:01:36;1111.50;;;999.90;;
10351;SDS011;5222;49.324;8.420;2022-07-29T03:04:09;1112.05;;;999.90;;
10351;SDS011;5222;49.324;8.420;2022-07-29T03:06:37;1110.55;;;999.90;;
10351;SDS011;5222;49.324;8.420;2022-07-29T03:09:05;1112.22;;;999.90;;
10351;SDS011;5222;49.324;8.420;2022-07-29T03:11:34;1112.00;;;999.90;;
10351;SDS011;5222;49.324;8.420;2022-07-29T03:14:02;1125.77;;;999.90;;
10351;SDS011;5222;49.324;8.420;2022-07-29T03:16:30;1112.53;;;999.90;;
10351;SDS011;5222;49.324;8.420;2022-07-29T03:18:57;1109.37;;;999.90;;
10351;SDS011;5222;49.324;8.420;2022-07-29T03:21:25;1124.43;;;999.90;;
10351;SDS011;5222;49.324;8.420;2022-07-29T03:23:52;1109.22;;;999.90;;
10351;SDS011;5222;49.324;8.420;2022-07-29T03:26:19;1109.70;;;999.90;;
10351;SDS011;5222;49.324;8.420;2022-07-29T03:28:46;1120.20;;;999.90;;
10351;SDS011;5222;49.324;8.420;2022-07-29T03:31:13;1113.03;;;999.90;;
10351;SDS011;5222;49.324;8.420;2022-07-29T03:33:39;1113.38;;;999.90;;
10351;SDS011;5222;49.324;8.420;2022-07-29T03:36:06;1112.13;;;999.90;;
10351;SDS011;5222;49.324;8.420;2022-07-29T03:38:34;1111.50;;;999.90;;
10351;SDS011;5222;49.324;8.420;2022-07-29T03:41:03;1105.10;;;999.90;;
10351;SDS011;5222;49.324;8.420;2022-07-29T03:43:35;1102.63;;;999.90;;
10351;SDS011;5222;49.324;8.420;2022-07-29T03:46:04;1105.97;;;999.90;;
10351;SDS011;5222;49.324;8.420;2022-07-29T03:48:33;1105.15;;;999.90;;
10351;SDS011;5222;49.324;8.420;2022-07-29T03:51:03;1101.65;;;999.90;;
10351;SDS011;5222;49.324;8.420;2022-07-29T03:53:30;1102.20;;;999.90;;
10351;SDS011;5222;49.324;8.420;2022-07-29T03:55:59;1094.28;;;999.90;;
10351;SDS011;5222;49.324;8.420;2022-07-29T03:58:27;1103.40;;;999.90;;
10351;SDS011;5222;49.324;8.420;2022-07-29T04:00:57;1100.72;;;999.90;;
10351;SDS011;5222;49.324;8.420;2022-07-29T04:03:25;1109.35;;;999.90;;
10351;SDS011;5222;49.324;8.420;2022-07-29T04:05:58;1097.72;;;999.90;;
10351;SDS011;5222;49.324;8.420;2022-07-29T04:08:26;1104.15;;;999.90;;
10351;SDS011;5222;49.324;8.420;2022-07-29T04:10:53;1108.50;;;999.90;;
10351;SDS011;5222;49.324;8.420;2022-07-29T04:13:22;1114.18;;;999.90;;
10351;SDS011;5222;49.324;8.420;2022-07-29T04:15:48;1113.65;;;999.90;;
10351;SDS011;5222;49.324;8.420;2022-07-29T04:18:15;1112.53;;;999.90;;
10351;SDS011;5222;49.324;8.420;2022-07-29T04:20:42;1107.43;;;999.90;;
10351;SDS011;5222;49.324;8.420;2022-07-29T04:23:09;1117.78;;;999.90;;
10351;SDS011;5222;49.324;8.420;2022-07-29T04:25:37;1114.13;;;999.90;;
10351;SDS011;5222;49.324;8.420;2022-07-29T04:28:04;1103.60;;;999.90;;
10351;SDS011;5222;49.324;8.420;2022-07-29T04:30:33;1112.97;;;999.90;;
10351;SDS011;5222;49.324;8.420;2022-07-29T04:33:01;1111.68;;;999.90;;
10351;SDS011;5222;49.324;8.420;2022-07-29T04:35:29;1107.30;;;999.90;;
10351;SDS011;5222;49.324;8.420;2022-07-29T04:37:57;1100.32;;;999.90;;
10351;SDS011;5222;49.324;8.420;2022-07-29T04:40:23;1108.22;;;999.90;;
10351;SDS011;5222;49.324;8.420;2022-07-29T04:42:50;1108.70;;;999.90;;
10351;SDS011;5222;49.324;8.420;2022-07-29T04:45:17;1106.63;;;999.90;;
10351;SDS011;5222;49.324;8.420;2022-07-29T04:47:45;1111.53;;;999.90;;
10351;SDS011;5222;49.324;8.420;2022-07-29T04:50:12;1115.43;;;999.90;;
10351;SDS011;5222;49.324;8.420;2022-07-29T04:52:39;1117.03;;;999.90;;
10351;SDS011;5222;49.324;8.420;2022-07-29T04:55:06;1115.88;;;999.90;;
10351;SDS011;5222;49.324;8.420;2022-07-29T04:57:33;1111.90;;;999.90;;
10351;SDS011;5222;49.324;8.420;2022-07-29T05:00:00;1110.32;;;999.90;;
10351;SDS011;5222;49.324;8.420;2022-07-29T05:02:26;1107.95;;;999.90;;
10351;SDS011;5222;49.324;8.420;2022-07-29T05:04:55;1102.47;;;999.90;;
10351;SDS011;5222;49.324;8.420;2022-07-29T05:07:21;1113.95;;;999.90;;
10351;SDS011;5222;49.324;8.420;2022-07-29T05:09:48;1110.43;;;999.90;;
10351;SDS011;5222;49.324;8.420;2022-07-29T05:12:15;1097.63;;;999.90;;
10351;SDS011;5222;49.324;8.420;2022-07-29T05:14:42;1110.27;;;999.90;;
10351;SDS011;5222;49.324;8.420;2022-07-29T05:17:08;1097.63;;;999.90;;
10351;SDS011;5222;49.324;8.420;2022-07-29T05:19:35;1105.82;;;999.90;;
10351;SDS011;5222;49.324;8.420;2022-07-29T05:22:03;1091.78;;;999.90;;
10351;SDS011;5222;49.324;8.420;2022-07-29T05:24:30;1104.22;;;999.90;;
10351;SDS011;5222;49.324;8.420;2022-07-29T05:26:57;1108.97;;;999.90;;
10351;SDS011;5222;49.324;8.420;2022-07-29T05:29:24;1088.40;;;999.90;;
10351;SDS011;5222;49.324;8.420;2022-07-29T05:31:51;1097.80;;;999.90;;
10351;SDS011;5222;49.324;8.420;2022-07-29T05:34:18;1095.63;;;999.90;;
10351;SDS011;5222;49.324;8.420;2022-07-29T05:36:45;1087.70;;;999.90;;
10351;SDS011;5222;49.324;8.420;2022-07-29T05:39:13;1093.55;;;999.90;;
10351;SDS011;5222;49.324;8.420;2022-07-29T05:41:40;1090.95;;;999.90;;
10351;SDS011;5222;49.324;8.420;2022-07-29T05:44:06;1092.65;;;999.90;;
10351;SDS011;5222;49.324;8.420;2022-07-29T05:46:33;1109.93;;;999.90;;
10351;SDS011;5222;49.324;8.420;2022-07-29T05:49:00;1083.78;;;999.90;;
10351;SDS011;5222;49.324;8.420;2022-07-29T05:51:27;1095.45;;;999.90;;
10351;SDS011;5222;49.324;8.420;2022-07-29T05:53:55;1084.53;;;999.90;;
10351;SDS011;5222;49.324;8.420;2022-07-29T05:56:23;1083.67;;;999.90;;
10351;SDS011;5222;49.324;8.420;2022-07-29T05:58:49;1089.43;;;999.90;;
10351;SDS011;5222;49.324;8.420;2022-07-29T06:01:16;1081.55;;;999.90;;
10351;SDS011;5222;49.324;8.420;2022-07-29T06:03:43;1073.65;;;999.90;;
10351;SDS011;5222;49.324;8.420;2022-07-29T06:06:10;1077.15;;;999.90;;
10351;SDS011;5222;49.324;8.420;2022-07-29T06:08:37;1074.10;;;999.90;;
10351;SDS011;5222;49.324;8.420;2022-07-29T06:11:05;1079.28;;;999.90;;
10351;SDS011;5222;49.324;8.420;2022-07-29T06:13:34;1087.28;;;999.90;;
10351;SDS011;5222;49.324;8.420;2022-07-29T06:16:01;1089.18;;;999.90;;
10351;SDS011;5222;49.324;8.420;2022-07-29T06:18:29;1084.82;;;999.90;;
10351;SDS011;5222;49.324;8.420;2022-07-29T06:20:56;1088.93;;;999.90;;
10351;SDS011;5222;49.324;8.420;2022-07-29T06:23:22;1070.45;;;999.90;;
10351;SDS011;5222;49.324;8.420;2022-07-29T06:25:49;1071.97;;;999.90;;
10351;SDS011;5222;49.324;8.420;2022-07-29T06:28:16;1087.57;;;999.90;;
10351;SDS011;5222;49.324;8.420;2022-07-29T06:30:44;1084.95;;;999.90;;
10351;SDS011;5222;49.324;8.420;2022-07-29T06:33:15;1077.82;;;999.90;;
10351;SDS011;5222;49.324;8.420;2022-07-29T06:35:42;1088.57;;;999.90;;
10351;SDS011;5222;49.324;8.420;2022-07-29T06:38:09;1088.95;;;999.90;;
10351;SDS011;5222;49.324;8.420;2022-07-29T06:40:40;1098.47;;;999.90;;
10351;SDS011;5222;49.324;8.420;2022-07-29T06:43:24;1088.65;;;999.90;;
10351;SDS011;5222;49.324;8.420;2022-07-29T06:45:53;1081.00;;;999.90;;
10351;SDS011;5222;49.324;8.420;2022-07-29T06:48:19;1086.20;;;999.90;;
10351;SDS011;5222;49.324;8.420;2022-07-29T06:50:46;1091.50;;;999.90;;
10351;SDS011;5222;49.324;8.420;2022-07-29T06:53:13;1085.15;;;999.90;;
10351;SDS011;5222;49.324;8.420;2022-07-29T06:55:40;1089.53;;;999.90;;
10351;SDS011;5222;49.324;8.420;2022-07-29T06:58:07;1079.67;;;999.90;;
10351;SDS011;5222;49.324;8.420;2022-07-29T07:00:34;1089.20;;;999.90;;
10351;SDS011;5222;49.324;8.420;2022-07-29T07:03:02;1071.38;;;999.90;;
10351;SDS011;5222;49.324;8.420;2022-07-29T07:05:29;1074.03;;;999.90;;
10351;SDS011;5222;49.324;8.420;2022-07-29T07:07:56;1077.78;;;999.90;;
10351;SDS011;5222;49.324;8.420;2022-07-29T07:10:22;1083.50;;;999.90;;
10351;SDS011;5222;49.324;8.420;2022-07-29T07:12:49;1080.72;;;999.90;;
10351;SDS011;5222;49.324;8.420;2022-07-29T07:15:16;1075.65;;;999.90;;
10351;SDS011;5222;49.324;8.420;2022-07-29T07:17:46;1080.80;;;999.90;;
10351;SDS011;5222;49.324;8.420;2022-07-29T07:20:14;1075.88;;;999.90;;
10351;SDS011;5222;49.324;8.420;2022-07-29T07:22:41;1074.35;;;999.90;;
10351;SDS011;5222;49.324;8.420;2022-07-29T07:25:08;1073.43;;;999.90;;
10351;SDS011;5222;49.324;8.420;2022-07-29T07:27:35;1084.40;;;999.90;;
10351;SDS011;5222;49.324;8.420;2022-07-29T07:30:03;1077.40;;;999.90;;
10351;SDS011;5222;49.324;8.420;2022-07-29T07:32:31;1082.53;;;999.90;;
10351;SDS011;5222;49.324;8.420;2022-07-29T07:34:58;1086.28;;;999.90;;
10351;SDS011;5222;49.324;8.420;2022-07-29T07:37:26;1090.57;;;999.90;;
10351;SDS011;5222;49.324;8.420;2022-07-29T07:39:53;1065.13;;;996.17;;
10351;SDS011;5222;49.324;8.420;2022-07-29T07:42:20;1056.45;;;988.15;;
10351;SDS011;5222;49.324;8.420;2022-07-29T07:44:47;1056.65;;;988.28;;
10351;SDS011;5222;49.324;8.420;2022-07-29T07:47:14;1047.15;;;979.13;;
10351;SDS011;5222;49.324;8.420;2022-07-29T07:49:44;1062.72;;;993.22;;
10351;SDS011;5222;49.324;8.420;2022-07-29T07:52:11;1068.50;;;998.97;;
10351;SDS011;5222;49.324;8.420;2022-07-29T07:54:39;1063.97;;;994.72;;
10351;SDS011;5222;49.324;8.420;2022-07-29T07:57:06;1067.53;;;997.83;;
10351;SDS011;5222;49.324;8.420;2022-07-29T07:59:32;1046.30;;;977.13;;
10351;SDS011;5222;49.324;8.420;2022-07-29T08:01:59;1038.25;;;970.25;;
10351;SDS011;5222;49.324;8.420;2022-07-29T08:04:26;936.13;;;870.67;;
10351;SDS011;5222;49.324;8.420;2022-07-29T08:06:53;914.70;;;850.95;;
10351;SDS011;5222;49.324;8.420;2022-07-29T08:09:20;902.97;;;840.03;;
10351;SDS011;5222;49.324;8.420;2022-07-29T08:11:48;901.37;;;838.37;;
10351;SDS011;5222;49.324;8.420;2022-07-29T08:14:14;903.22;;;840.53;;
10351;SDS011;5222;49.324;8.420;2022-07-29T08:16:41;904.63;;;841.17;;
10351;SDS011;5222;49.324;8.420;2022-07-29T08:19:08;893.35;;;831.53;;
10351;SDS011;5222;49.324;8.420;2022-07-29T08:21:35;888.35;;;825.55;;
10351;SDS011;5222;49.324;8.420;2022-07-29T08:24:03;885.67;;;823.97;;
10351;SDS011;5222;49.324;8.420;2022-07-29T08:26:49;887.03;;;824.55;;
10351;SDS011;5222;49.324;8.420;2022-07-29T08:29:16;887.95;;;824.33;;
10351;SDS011;5222;49.324;8.420;2022-07-29T08:31:43;889.13;;;826.05;;
10351;SDS011;5222;49.324;8.420;2022-07-29T08:34:10;894.47;;;832.40;;
10351;SDS011;5222;49.324;8.420;2022-07-29T08:36:38;915.20;;;851.00;;
10351;SDS011;5222;49.324;8.420;2022-07-29T08:39:05;902.00;;;839.53;;
10351;SDS011;5222;49.324;8.420;2022-07-29T08:41:31;901.30;;;837.58;;
10351;SDS011;5222;49.324;8.420;2022-07-29T08:43:59;906.80;;;843.70;;
10351;SDS011;5222;49.324;8.420;2022-07-29T08:46:26;907.95;;;844.55;;
10351;SDS011;5222;49.324;8.420;2022-07-29T08:48:53;903.40;;;840.33;;
10351;SDS011;5222;49.324;8.420;2022-07-29T08:51:22;906.60;;;842.67;;
10351;SDS011;5222;49.324;8.420;2022-07-29T08:53:51;913.95;;;850.88;;
10351;SDS011;5222;49.324;8.420;2022-07-29T08:56:19;912.53;;;849.50;;
10351;SDS011;5222;49.324;8.420;2022-07-29T08:58:47;916.83;;;853.90;;
10351;SDS011;5222;49.324;8.420;2022-07-29T09:01:16;906.78;;;843.75;;
10351;SDS011;5222;49.324;8.420;2022-07-29T09:03:50;915.30;;;851.25;;
10351;SDS011;5222;49.324;8.420;2022-07-29T09:06:21;920.20;;;856.60;;
10351;SDS011;5222;49.324;8.420;2022-07-29T09:08:52;918.75;;;854.78;;
10351;SDS011;5222;49.324;8.420;2022-07-29T09:11:23;913.30;;;849.60;;
10351;SDS011;5222;49.324;8.420;2022-07-29T09:13:50;919.55;;;856.33;;
10351;SDS011;5222;49.324;8.420;2022-07-29T09:16:18;925.78;;;861.90;;
10351;SDS011;5222;49.324;8.420;2022-07-29T09:18:45;924.80;;;861.05;;
10351;SDS011;5222;49.324;8.420;2022-07-29T09:21:13;927.65;;;863.72;;
10351;SDS011;5222;49.324;8.420;2022-07-29T09:23:59;936.33;;;871.80;;
10351;SDS011;5222;49.324;8.420;2022-07-29T09:26:27;920.73;;;857.30;;
10351;SDS011;5222;49.324;8.420;2022-07-29T09:28:55;876.03;;;813.35;;
10351;SDS011;5222;49.324;8.420;2022-07-29T09:31:27;848.88;;;787.40;;
10351;SDS011;5222;49.324;8.420;2022-07-29T09:33:59;842.22;;;781.30;;
10351;SDS011;5222;49.324;8.420;2022-07-29T09:36:26;817.05;;;755.90;;
10351;SDS011;5222;49.324;8.420;2022-07-29T09:38:59;804.00;;;743.63;;
10351;SDS011;5222;49.324;8.420;2022-07-29T09:41:27;814.40;;;753.17;;
10351;SDS011;5222;49.324;8.420;2022-07-29T09:43:55;798.80;;;739.53;;
10351;SDS011;5222;49.324;8.420;2022-07-29T09:46:24;814.58;;;754.08;;
10351;SDS011;5222;49.324;8.420;2022-07-29T09:49:08;815.43;;;754.60;;
10351;SDS011;5222;49.324;8.420;2022-07-29T09:51:36;810.45;;;749.55;;
10351;SDS011;5222;49.324;8.420;2022-07-29T09:54:05;811.88;;;751.90;;
10351;SDS011;5222;49.324;8.420;2022-07-29T09:56:48;797.10;;;737.63;;
10351;SDS011;5222;49.324;8.420;2022-07-29T09:59:15;796.95;;;737.10;;
10351;SDS011;5222;49.324;8.420;2022-07-29T10:01:42;801.28;;;741.30;;
10351;SDS011;5222;49.324;8.420;2022-07-29T10:04:10;811.95;;;751.47;;
10351;SDS011;5222;49.324;8.420;2022-07-29T10:06:42;803.75;;;743.58;;
10351;SDS011;5222;49.324;8.420;2022-07-29T10:09:22;805.90;;;746.15;;
10351;SDS011;5222;49.324;8.420;2022-07-29T10:12:02;808.43;;;748.17;;
10351;SDS011;5222;49.324;8.420;2022-07-29T10:14:31;801.35;;;741.78;;
10351;SDS011;5222;49.324;8.420;2022-07-29T10:16:58;797.63;;;737.67;;
10351;SDS011;5222;49.324;8.420;2022-07-29T10:19:27;799.75;;;740.28;;
10351;SDS011;5222;49.324;8.420;2022-07-29T10:21:55;793.30;;;732.92;;
10351;SDS011;5222;49.324;8.420;2022-07-29T10:24:23;794.58;;;735.08;;
10351;SDS011;5222;49.324;8.420;2022-07-29T10:26:51;805.72;;;746.05;;
10351;SDS011;5222;49.324;8.420;2022-07-29T10:29:20;812.85;;;753.15;;
10351;SDS011;5222;49.324;8.420;2022-07-29T10:31:48;824.67;;;764.22;;
10351;SDS011;5222;49.324;8.420;2022-07-29T10:34:23;836.83;;;776.55;;
10351;SDS011;5222;49.324;8.420;2022-07-29T10:37:03;837.45;;;776.10;;
10351;SDS011;5222;49.324;8.420;2022-07-29T10:39:41;835.00;;;774.92;;
10351;SDS011;5222;49.324;8.420;2022-07-29T10:42:20;837.08;;;777.22;;
10351;SDS011;5222;49.324;8.420;2022-07-29T10:44:49;843.83;;;783.25;;
10351;SDS011;5222;49.324;8.420;2022-07-29T10:47:20;838.67;;;779.03;;
10351;SDS011;5222;49.324;8.420;2022-07-29T10:49:59;831.75;;;772.15;;
10351;SDS011;5222;49.324;8.420;2022-07-29T10:55:34;830.63;;;770.75;;
10351;SDS011;5222;49.324;8.420;2022-07-29T10:58:15;856.63;;;795.33;;
10351;SDS011;5222;49.324;8.420;2022-07-29T11:00:43;857.35;;;794.72;;
10351;SDS011;5222;49.324;8.420;2022-07-29T11:06:12;834.67;;;774.97;;
10351;SDS011;5222;49.324;8.420;2022-07-29T11:08:39;849.97;;;789.60;;
10351;SDS011;5222;49.324;8.420;2022-07-29T11:13:58;852.97;;;792.15;;
10351;SDS011;5222;49.324;8.420;2022-07-29T11:16:24;853.42;;;792.90;;
10351;SDS011;5222;49.324;8.420;2022-07-29T11:21:49;850.33;;;789.95;;
10351;SDS011;5222;49.324;8.420;2022-07-29T11:24:17;844.63;;;784.70;;
10351;SDS011;5222;49.324;8.420;2022-07-29T11:26:46;847.72;;;787.17;;
10351;SDS011;5222;49.324;8.420;2022-07-29T11:29:38;853.88;;;793.47;;
10351;SDS011;5222;49.324;8.420;2022-07-29T11:32:10;851.63;;;790.80;;
10351;SDS011;5222;49.324;8.420;2022-07-29T11:34:39;844.22;;;784.30;;
10351;SDS011;5222;49.324;8.420;2022-07-29T11:37:23;850.35;;;790.20;;
10351;SDS011;5222;49.324;8.420;2022-07-29T11:42:41;839.70;;;779.58;;
10351;SDS011;5222;49.324;8.420;2022-07-29T11:45:11;840.80;;;780.63;;
10351;SDS011;5222;49.324;8.420;2022-07-29T11:47:41;837.75;;;777.17;;
10351;SDS011;5222;49.324;8.420;2022-07-29T11:50:14;846.25;;;785.33;;
10351;SDS011;5222;49.324;8.420;2022-07-29T11:52:44;844.35;;;783.75;;
10351;SDS011;5222;49.324;8.420;2022-07-29T11:55:14;844.63;;;784.78;;
10351;SDS011;5222;49.324;8.420;2022-07-29T11:57:47;848.80;;;788.93;;
10351;SDS011;5222;49.324;8.420;2022-07-29T12:00:21;847.95;;;787.92;;
10351;SDS011;5222;49.324;8.420;2022-07-29T12:02:53;851.67;;;791.30;;
10351;SDS011;5222;49.324;8.420;2022-07-29T12:05:21;848.20;;;787.60;;
10351;SDS011;5222;49.324;8.420;2022-07-29T12:07:58;852.13;;;791.22;;
10351;SDS011;5222;49.324;8.420;2022-07-29T12:10:30;870.20;;;807.03;;
10351;SDS011;5222;49.324;8.420;2022-07-29T12:12:58;860.40;;;799.47;;
10351;SDS011;5222;49.324;8.420;2022-07-29T12:15:24;856.67;;;795.53;;
10351;SDS011;5222;49.324;8.420;2022-07-29T12:17:51;849.83;;;789.22;;
10351;SDS011;5222;49.324;8.420;2022-07-29T12:20:22;859.85;;;798.85;;
10351;SDS011;5222;49.324;8.420;2022-07-29T12:22:50;858.10;;;797.70;;
10351;SDS011;5222;49.324;8.420;2022-07-29T12:25:20;859.05;;;798.40;;
10351;SDS011;5222;49.324;8.420;2022-07-29T12:27:57;858.80;;;798.15;;
10351;SDS011;5222;49.324;8.420;2022-07-29T12:30:33;852.75;;;791.05;;
10351;SDS011;5222;49.324;8.420;2022-07-29T12:33:15;850.17;;;788.50;;
10351;SDS011;5222;49.324;8.420;2022-07-29T12:35:44;835.88;;;775.55;;
10351;SDS011;5222;49.324;8.420;2022-07-29T12:38:13;836.70;;;775.65;;
10351;SDS011;5222;49.324;8.420;2022-07-29T12:40:42;825.08;;;765.42;;
10351;SDS011;5222;49.324;8.420;2022-07-29T12:43:11;827.30;;;767.60;;
10351;SDS011;5222;49.324;8.420;2022-07-29T12:45:41;817.90;;;758.15;;
10351;SDS011;5222;49.324;8.420;2022-07-29T12:48:09;821.15;;;760.67;;
10351;SDS011;5222;49.324;8.420;2022-07-29T12:50:36;826.40;;;763.80;;
10351;SDS011;5222;49.324;8.420;2022-07-29T12:53:17;813.15;;;753.28;;
10351;SDS011;5222;49.324;8.420;2022-07-29T12:55:47;822.80;;;762.17;;
10351;SDS011;5222;49.324;8.420;2022-07-29T12:58:25;824.28;;;762.55;;
10351;SDS011;5222;49.324;8.420;2022-07-29T13:01:00;798.95;;;738.70;;
10351;SDS011;5222;49.324;8.420;2022-07-29T13:03:44;801.20;;;741.77;;
10351;SDS011;5222;49.324;8.420;2022-07-29T13:06:27;807.15;;;746.95;;
10351;SDS011;5222;49.324;8.420;2022-07-29T13:08:58;810.47;;;751.08;;
10351;SDS011;5222;49.324;8.420;2022-07-29T13:11:31;798.65;;;738.70;;
10351;SDS011;5222;49.324;8.420;2022-07-29T13:13:58;808.00;;;747.55;;
10351;SDS011;5222;49.324;8.420;2022-07-29T13:16:25;798.42;;;738.53;;
10351;SDS011;5222;49.324;8.420;2022-07-29T13:19:02;817.28;;;755.67;;
10351;SDS011;5222;49.324;8.420;2022-07-29T13:21:33;805.80;;;745.90;;
10351;SDS011;5222;49.324;8.420;2022-07-29T13:24:00;795.42;;;735.80;;
10351;SDS011;5222;49.324;8.420;2022-07-29T13:26:27;804.85;;;744.13;;
10351;SDS011;5222;49.324;8.420;2022-07-29T13:28:55;805.53;;;745.25;;
10351;SDS011;5222;49.324;8.420;2022-07-29T13:31:22;797.93;;;737.73;;
10351;SDS011;5222;49.324;8.420;2022-07-29T13:33:49;807.35;;;746.47;;
10351;SDS011;5222;49.324;8.420;2022-07-29T13:36:15;797.78;;;737.72;;
10351;SDS011;5222;49.324;8.420;2022-07-29T13:38:42;806.67;;;746.70;;
10351;SDS011;5222;49.324;8.420;2022-07-29T13:41:09;815.23;;;754.37;;
10351;SDS011;5222;49.324;8.420;2022-07-29T13:43:36;819.47;;;758.63;;
10351;SDS011;5222;49.324;8.420;2022-07-29T13:46:04;821.67;;;759.97;;
10351;SDS011;5222;49.324;8.420;2022-07-29T13:48:31;825.20;;;762.97;;
10351;SDS011;5222;49.324;8.420;2022-07-29T13:50:57;833.33;;;771.22;;
10351;SDS011;5222;49.324;8.420;2022-07-29T13:53:24;820.38;;;759.67;;
10351;SDS011;5222;49.324;8.420;2022-07-29T13:55:52;804.05;;;743.83;;
10351;SDS011;5222;49.324;8.420;2022-07-29T13:58:19;817.80;;;756.17;;
10351;SDS011;5222;49.324;8.420;2022-07-29T14:00:46;830.80;;;768.70;;
10351;SDS011;5222;49.324;8.420;2022-07-29T14:03:14;805.45;;;744.78;;
10351;SDS011;5222;49.324;8.420;2022-07-29T14:05:41;804.42;;;744.35;;
10351;SDS011;5222;49.324;8.420;2022-07-29T14:08:08;804.10;;;744.03;;
10351;SDS011;5222;49.324;8.420;2022-07-29T14:10:34;832.90;;;769.45;;
10351;SDS011;5222;49.324;8.420;2022-07-29T14:13:01;821.17;;;760.10;;
10351;SDS011;5222;49.324;8.420;2022-07-29T14:15:28;822.65;;;760.88;;
10351;SDS011;5222;49.324;8.420;2022-07-29T14:17:55;812.55;;;751.63;;
10351;SDS011;5222;49.324;8.420;2022-07-29T14:20:23;808.87;;;747.80;;
10351;SDS011;5222;49.324;8.420;2022-07-29T14:22:50;798.67;;;738.70;;
10351;SDS011;5222;49.324;8.420;2022-07-29T14:25:16;817.08;;;755.97;;
10351;SDS011;5222;49.324;8.420;2022-07-29T14:27:43;812.80;;;751.70;;
10351;SDS011;5222;49.324;8.420;2022-07-29T14:30:10;814.80;;;753.88;;